Terminal Aerodrome Forecast
Issued by NWS Greer, SC

Home | Current Version | Previous Version | Text Only | Print | Product List | Glossary On
Versions: 1 2 3 4 5 6 7 8 9 10 11 12 13 14 15 16 17 18 19 20 21 22 23
000
FTUS42 KGSP 282325
TAFGSP
TAF
KGSP 282325Z 2900/2924 27010KT P6SM FEW070
     FM290300 34004KT P6SM FEW250
     FM290600 02003KT P6SM FEW050
     FM291700 12004KT P6SM FEW050=

USA.gov is the U.S. government's official web portal to all federal, state and local government web resources and services.